Astana International Airport
UACC : now visible

Airfield :











YOU CAN JOIN US ON...

 
LOGIN :

Register | Disclaimer

   EN    FR    IT 

 









Legend :    VFR   Marginal VFR   IFR   Intensive IFR   Very Intensive IFR
Visi :
Ceiling :
>= 8 km
>= 3000ft
5 to 8 km
1000 to 3000 ft
1500m to 5 km
500 to 1000 ft
800 to 1500m
200 to 500 ft
< 800m
< 200 ft
Symbols :   Thunderstorms  Fog  Heavy snow  Heavy precipitations  Wind > 20 kt






- Airport Elevation : 1165 ft
- IATA code : TSE


UACC - Astana International

CURRENT METAR :
  • 090000Z 20003MPS CAVOK M06/M07 Q1022 R04/0///70 NOSIG RMK QFE735/0980

EXPIRED METARs :
  • 082330Z 25003MPS CAVOK M02/M05 Q1022 R04/0///70 NOSIG RMK QFE734/0979
  • 082300Z 22003MPS CAVOK M05/M06 Q1021 R04/0///70 NOSIG RMK QFE734/0979
  • 082230Z 20002MPS CAVOK M05/M07 Q1021 R22/0///70 NOSIG RMK QFE734/0979
  • 082200Z 21003MPS CAVOK M06/M07 Q1021 R22/0///70 NOSIG RMK QFE734/0979
  • 082130Z 23003MPS CAVOK M05/M07 Q1021 R22/0///70 NOSIG RMK QFE734/0979

TAF TAF UACC
Valid from the 09 at 00:00 until the 10 at 00:00 UTC


082300Z 0900/0924 22006MPS 9999 SCT011 BKN100 TX05/0909Z TNM04/0924Z
TEMPO 0900/0902 FEW004
TEMPO 0903/0905 24007MPS 5000 -SNRA FEW006
TEMPO 0905/0915 24007G12MPS 3100 SHRASN FEW007 BKN020CB



MET'MAP, your aeronautical weather chart ! - Copyright ORBIFLY December 2007 - Disclaimer

ORBIFLY MET'MAP TEAM :

Programming & Development : Alexandra Zaïnal
Concept & original design : Baudouin d'Aumeries
Assistance for programming : Marc-Olivier Méhu
Technical & hardware support : Manuel Goepfert

Contact : metmap@orbifly.com




SOURCES & CREDITS :

   NOAA       Earth
Advisory